Fayston, Vermont
Current Conditions -  °F | °C
As of 10:51 PM on Wednesday 28 Jan 2015 (Local Time) from KMPV Reporting Station
Clear Clear  
Wind Chill: -10°   Ceiling: Unl
Heat Index:   Visibility: 9mi
Dew Point: -6°   Wind: 5mph
Humidity: 76%   Direction: 180°S
Pressure: 30.25"   Gusts: NA
Location:  44.1924°N, 72.8443°W
Report Text: KMPV 290351Z AUTO 18004KT 9SM CLR M18/M21 A3025 RMK AO2 SLP275 T11781211
Loading
Personal Weather Stations






























Interactive Weather Map New forecast layout! Learn more

10-Day Weather Forecast

Advertisements
Track Severe Weather on mobile